sensor_id;sensor_type;location;lat;lon;timestamp;temperature;humidity
47576;DHT22;33304;52.456;13.328;2022-10-17T00:01:40;14.50;42.60
47576;DHT22;33304;52.456;13.328;2022-10-17T00:04:07;14.60;42.70
47576;DHT22;33304;52.456;13.328;2022-10-17T00:06:34;14.70;42.60
47576;DHT22;33304;52.456;13.328;2022-10-17T00:09:01;14.60;42.60
47576;DHT22;33304;52.456;13.328;2022-10-17T00:11:29;14.50;43.40
47576;DHT22;33304;52.456;13.328;2022-10-17T00:13:56;14.40;44.50
47576;DHT22;33304;52.456;13.328;2022-10-17T00:16:24;14.40;44.90
47576;DHT22;33304;52.456;13.328;2022-10-17T00:18:53;14.50;44.90
47576;DHT22;33304;52.456;13.328;2022-10-17T00:21:22;14.60;44.50
47576;DHT22;33304;52.456;13.328;2022-10-17T00:23:50;14.70;43.70
47576;DHT22;33304;52.456;13.328;2022-10-17T00:26:17;14.80;44.00
47576;DHT22;33304;52.456;13.328;2022-10-17T00:28:45;14.70;43.90
47576;DHT22;33304;52.456;13.328;2022-10-17T00:31:12;14.70;44.10
47576;DHT22;33304;52.456;13.328;2022-10-17T00:33:39;14.70;44.30
47576;DHT22;33304;52.456;13.328;2022-10-17T00:36:12;14.70;44.60
47576;DHT22;33304;52.456;13.328;2022-10-17T00:38:40;14.60;44.70
47576;DHT22;33304;52.456;13.328;2022-10-17T00:41:09;14.60;45.10
47576;DHT22;33304;52.456;13.328;2022-10-17T00:43:55;14.50;46.20
47576;DHT22;33304;52.456;13.328;2022-10-17T00:46:24;14.40;47.20
47576;DHT22;33304;52.456;13.328;2022-10-17T00:48:52;14.40;47.50
47576;DHT22;33304;52.456;13.328;2022-10-17T00:51:29;14.40;48.40
47576;DHT22;33304;52.456;13.328;2022-10-17T00:53:58;14.40;49.00
47576;DHT22;33304;52.456;13.328;2022-10-17T00:56:26;14.60;47.40
47576;DHT22;33304;52.456;13.328;2022-10-17T00:58:54;14.70;47.40
47576;DHT22;33304;52.456;13.328;2022-10-17T01:01:21;14.70;47.40
47576;DHT22;33304;52.456;13.328;2022-10-17T01:03:48;14.70;47.40
47576;DHT22;33304;52.456;13.328;2022-10-17T01:06:17;14.80;47.50
47576;DHT22;33304;52.456;13.328;2022-10-17T01:08:46;14.90;47.70
47576;DHT22;33304;52.456;13.328;2022-10-17T01:11:21;14.80;47.50
47576;DHT22;33304;52.456;13.328;2022-10-17T01:13:57;14.70;47.40
47576;DHT22;33304;52.456;13.328;2022-10-17T01:16:33;14.60;47.40
47576;DHT22;33304;52.456;13.328;2022-10-17T01:19:18;14.50;48.50
47576;DHT22;33304;52.456;13.328;2022-10-17T01:21:54;14.50;49.20
47576;DHT22;33304;52.456;13.328;2022-10-17T01:24:49;14.60;48.70
47576;DHT22;33304;52.456;13.328;2022-10-17T01:27:55;14.70;48.00
47576;DHT22;33304;52.456;13.328;2022-10-17T01:30:59;14.60;48.60
47576;DHT22;33304;52.456;13.328;2022-10-17T01:33:52;14.50;49.30
47576;DHT22;33304;52.456;13.328;2022-10-17T01:36:30;14.50;49.50
47576;DHT22;33304;52.456;13.328;2022-10-17T01:39:08;14.30;51.50
47576;DHT22;33304;52.456;13.328;2022-10-17T01:41:40;14.20;54.10
47576;DHT22;33304;52.456;13.328;2022-10-17T01:44:12;14.30;54.00
47576;DHT22;33304;52.456;13.328;2022-10-17T01:46:42;14.30;54.40
47576;DHT22;33304;52.456;13.328;2022-10-17T01:49:13;14.40;54.00
47576;DHT22;33304;52.456;13.328;2022-10-17T01:51:45;14.30;54.60
47576;DHT22;33304;52.456;13.328;2022-10-17T01:54:17;14.30;55.60
47576;DHT22;33304;52.456;13.328;2022-10-17T01:56:50;14.30;56.10
47576;DHT22;33304;52.456;13.328;2022-10-17T01:59:20;14.20;57.10
47576;DHT22;33304;52.456;13.328;2022-10-17T02:01:52;14.20;58.30
47576;DHT22;33304;52.456;13.328;2022-10-17T02:04:21;14.20;58.20
47576;DHT22;33304;52.456;13.328;2022-10-17T02:06:48;14.20;58.20
47576;DHT22;33304;52.456;13.328;2022-10-17T02:09:17;14.00;60.40
47576;DHT22;33304;52.456;13.328;2022-10-17T02:11:56;13.90;64.20
47576;DHT22;33304;52.456;13.328;2022-10-17T02:14:34;14.00;67.70
47576;DHT22;33304;52.456;13.328;2022-10-17T02:17:12;13.90;69.00
47576;DHT22;33304;52.456;13.328;2022-10-17T02:19:52;13.80;74.80
47576;DHT22;33304;52.456;13.328;2022-10-17T02:22:29;13.80;80.80
47576;DHT22;33304;52.456;13.328;2022-10-17T02:25:07;13.80;83.20
47576;DHT22;33304;52.456;13.328;2022-10-17T02:27:42;13.90;88.50
47576;DHT22;33304;52.456;13.328;2022-10-17T02:30:17;13.90;87.00
47576;DHT22;33304;52.456;13.328;2022-10-17T02:32:50;13.90;88.50
47576;DHT22;33304;52.456;13.328;2022-10-17T02:35:21;13.90;91.10
47576;DHT22;33304;52.456;13.328;2022-10-17T02:37:50;13.90;96.70
47576;DHT22;33304;52.456;13.328;2022-10-17T02:40:20;13.80;99.90
47576;DHT22;33304;52.456;13.328;2022-10-17T02:42:49;13.80;99.90
47576;DHT22;33304;52.456;13.328;2022-10-17T02:45:17;13.90;99.90
47576;DHT22;33304;52.456;13.328;2022-10-17T02:47:50;13.90;99.90
47576;DHT22;33304;52.456;13.328;2022-10-17T02:50:25;13.90;99.90
47576;DHT22;33304;52.456;13.328;2022-10-17T02:52:58;13.90;99.90
47576;DHT22;33304;52.456;13.328;2022-10-17T02:55:30;13.90;99.90
47576;DHT22;33304;52.456;13.328;2022-10-17T02:58:01;13.90;99.90
47576;DHT22;33304;52.456;13.328;2022-10-17T03:00:31;13.80;99.90
47576;DHT22;33304;52.456;13.328;2022-10-17T03:03:00;13.90;99.90
47576;DHT22;33304;52.456;13.328;2022-10-17T03:05:28;13.90;99.90
47576;DHT22;33304;52.456;13.328;2022-10-17T03:07:56;13.90;99.90
47576;DHT22;33304;52.456;13.328;2022-10-17T03:10:24;13.90;99.90
47576;DHT22;33304;52.456;13.328;2022-10-17T03:12:51;13.90;99.90
47576;DHT22;33304;52.456;13.328;2022-10-17T03:15:19;13.90;99.90
47576;DHT22;33304;52.456;13.328;2022-10-17T03:17:46;13.90;99.90
47576;DHT22;33304;52.456;13.328;2022-10-17T03:20:14;14.00;99.90
47576;DHT22;33304;52.456;13.328;2022-10-17T03:22:41;14.00;99.90
47576;DHT22;33304;52.456;13.328;2022-10-17T03:25:09;14.00;99.90
47576;DHT22;33304;52.456;13.328;2022-10-17T03:27:36;14.10;99.90
47576;DHT22;33304;52.456;13.328;2022-10-17T03:30:05;14.10;99.90
47576;DHT22;33304;52.456;13.328;2022-10-17T03:32:33;14.10;99.90
47576;DHT22;33304;52.456;13.328;2022-10-17T03:35:00;14.10;99.90
47576;DHT22;33304;52.456;13.328;2022-10-17T03:37:29;14.10;99.90
47576;DHT22;33304;52.456;13.328;2022-10-17T03:39:56;14.20;99.90
47576;DHT22;33304;52.456;13.328;2022-10-17T03:42:24;14.10;99.90
47576;DHT22;33304;52.456;13.328;2022-10-17T03:44:51;14.20;99.90
47576;DHT22;33304;52.456;13.328;2022-10-17T03:47:19;14.10;99.90
47576;DHT22;33304;52.456;13.328;2022-10-17T03:49:46;14.10;99.90
47576;DHT22;33304;52.456;13.328;2022-10-17T03:52:14;14.20;99.90
47576;DHT22;33304;52.456;13.328;2022-10-17T03:54:43;14.20;99.90
47576;DHT22;33304;52.456;13.328;2022-10-17T03:57:10;14.20;99.90
47576;DHT22;33304;52.456;13.328;2022-10-17T03:59:37;14.20;99.90
47576;DHT22;33304;52.456;13.328;2022-10-17T04:02:09;14.20;99.90
47576;DHT22;33304;52.456;13.328;2022-10-17T04:04:37;14.10;99.90
47576;DHT22;33304;52.456;13.328;2022-10-17T04:07:04;14.10;99.90
47576;DHT22;33304;52.456;13.328;2022-10-17T04:09:34;14.10;99.90
47576;DHT22;33304;52.456;13.328;2022-10-17T04:12:08;14.10;99.90
47576;DHT22;33304;52.456;13.328;2022-10-17T04:14:37;14.10;99.90
47576;DHT22;33304;52.456;13.328;2022-10-17T04:17:04;14.10;99.90
47576;DHT22;33304;52.456;13.328;2022-10-17T04:19:32;14.10;99.90
47576;DHT22;33304;52.456;13.328;2022-10-17T04:21:59;14.10;99.90
47576;DHT22;33304;52.456;13.328;2022-10-17T04:24:28;14.10;99.90
47576;DHT22;33304;52.456;13.328;2022-10-17T04:27:04;14.10;99.90
47576;DHT22;33304;52.456;13.328;2022-10-17T04:29:36;14.10;99.90
47576;DHT22;33304;52.456;13.328;2022-10-17T04:32:15;14.00;99.90
47576;DHT22;33304;52.456;13.328;2022-10-17T04:34:47;14.00;99.90
47576;DHT22;33304;52.456;13.328;2022-10-17T04:37:15;14.00;99.90
47576;DHT22;33304;52.456;13.328;2022-10-17T04:39:44;14.00;99.90
47576;DHT22;33304;52.456;13.328;2022-10-17T04:42:11;14.00;99.90
47576;DHT22;33304;52.456;13.328;2022-10-17T04:44:40;13.90;99.90
47576;DHT22;33304;52.456;13.328;2022-10-17T04:47:08;14.00;99.90
47576;DHT22;33304;52.456;13.328;2022-10-17T04:49:35;13.90;99.90
47576;DHT22;33304;52.456;13.328;2022-10-17T04:52:08;13.90;99.90
47576;DHT22;33304;52.456;13.328;2022-10-17T04:54:49;13.90;99.90
47576;DHT22;33304;52.456;13.328;2022-10-17T04:57:17;13.80;99.90
47576;DHT22;33304;52.456;13.328;2022-10-17T04:59:56;13.80;99.90
47576;DHT22;33304;52.456;13.328;2022-10-17T05:02:46;13.90;99.90
47576;DHT22;33304;52.456;13.328;2022-10-17T05:05:14;13.80;99.90
47576;DHT22;33304;52.456;13.328;2022-10-17T05:07:43;13.90;99.90
47576;DHT22;33304;52.456;13.328;2022-10-17T05:10:13;13.80;99.90
47576;DHT22;33304;52.456;13.328;2022-10-17T05:12:45;13.80;99.90
47576;DHT22;33304;52.456;13.328;2022-10-17T05:15:14;13.80;99.90
47576;DHT22;33304;52.456;13.328;2022-10-17T05:17:41;13.80;99.90
47576;DHT22;33304;52.456;13.328;2022-10-17T05:20:09;13.80;99.90
47576;DHT22;33304;52.456;13.328;2022-10-17T05:22:37;13.80;99.90
47576;DHT22;33304;52.456;13.328;2022-10-17T05:25:05;13.80;99.90
47576;DHT22;33304;52.456;13.328;2022-10-17T05:27:33;13.80;99.90
47576;DHT22;33304;52.456;13.328;2022-10-17T05:30:00;13.80;99.90
47576;DHT22;33304;52.456;13.328;2022-10-17T05:32:31;13.70;99.90
47576;DHT22;33304;52.456;13.328;2022-10-17T05:34:58;13.70;99.90
47576;DHT22;33304;52.456;13.328;2022-10-17T05:37:28;13.70;99.90
47576;DHT22;33304;52.456;13.328;2022-10-17T05:39:56;13.80;99.90
47576;DHT22;33304;52.456;13.328;2022-10-17T05:42:24;13.70;99.90
47576;DHT22;33304;52.456;13.328;2022-10-17T05:44:51;13.70;99.90
47576;DHT22;33304;52.456;13.328;2022-10-17T05:47:19;13.70;99.90
47576;DHT22;33304;52.456;13.328;2022-10-17T05:49:47;13.80;99.90
47576;DHT22;33304;52.456;13.328;2022-10-17T05:52:16;13.80;99.90
47576;DHT22;33304;52.456;13.328;2022-10-17T05:54:57;13.70;99.90
47576;DHT22;33304;52.456;13.328;2022-10-17T05:57:25;13.70;99.90
47576;DHT22;33304;52.456;13.328;2022-10-17T05:59:52;13.80;99.90
47576;DHT22;33304;52.456;13.328;2022-10-17T06:02:20;13.80;99.90
47576;DHT22;33304;52.456;13.328;2022-10-17T06:04:48;13.80;99.90
47576;DHT22;33304;52.456;13.328;2022-10-17T06:07:17;13.90;99.90
47576;DHT22;33304;52.456;13.328;2022-10-17T06:09:44;13.90;99.90
47576;DHT22;33304;52.456;13.328;2022-10-17T06:12:11;13.90;99.90
47576;DHT22;33304;52.456;13.328;2022-10-17T06:14:40;13.90;99.90
47576;DHT22;33304;52.456;13.328;2022-10-17T06:17:07;13.90;99.90
47576;DHT22;33304;52.456;13.328;2022-10-17T06:19:34;13.90;99.90
47576;DHT22;33304;52.456;13.328;2022-10-17T06:22:03;13.90;99.90
47576;DHT22;33304;52.456;13.328;2022-10-17T06:24:31;13.90;99.90
47576;DHT22;33304;52.456;13.328;2022-10-17T06:27:02;13.90;99.90
47576;DHT22;33304;52.456;13.328;2022-10-17T06:29:29;13.90;99.90
47576;DHT22;33304;52.456;13.328;2022-10-17T06:31:57;13.90;99.90
47576;DHT22;33304;52.456;13.328;2022-10-17T06:34:24;13.90;99.90
47576;DHT22;33304;52.456;13.328;2022-10-17T06:36:52;14.00;99.90
47576;DHT22;33304;52.456;13.328;2022-10-17T06:39:20;13.90;99.90
47576;DHT22;33304;52.456;13.328;2022-10-17T06:42:00;14.00;99.90
47576;DHT22;33304;52.456;13.328;2022-10-17T06:45:07;13.90;99.90
47576;DHT22;33304;52.456;13.328;2022-10-17T06:47:45;14.00;99.90
47576;DHT22;33304;52.456;13.328;2022-10-17T06:50:31;14.10;99.90
47576;DHT22;33304;52.456;13.328;2022-10-17T06:53:10;14.10;99.90
47576;DHT22;33304;52.456;13.328;2022-10-17T06:55:51;14.10;99.90
47576;DHT22;33304;52.456;13.328;2022-10-17T06:58:38;14.10;99.90
47576;DHT22;33304;52.456;13.328;2022-10-17T07:01:13;14.20;99.90
47576;DHT22;33304;52.456;13.328;2022-10-17T07:03:41;14.30;99.90
47576;DHT22;33304;52.456;13.328;2022-10-17T07:06:09;14.30;99.90
47576;DHT22;33304;52.456;13.328;2022-10-17T07:08:37;14.40;99.90
47576;DHT22;33304;52.456;13.328;2022-10-17T07:11:10;14.40;99.90
47576;DHT22;33304;52.456;13.328;2022-10-17T07:13:37;14.60;99.90
47576;DHT22;33304;52.456;13.328;2022-10-17T07:16:05;14.70;99.90
47576;DHT22;33304;52.456;13.328;2022-10-17T07:18:33;14.70;99.90
47576;DHT22;33304;52.456;13.328;2022-10-17T07:21:01;14.80;99.90
47576;DHT22;33304;52.456;13.328;2022-10-17T07:23:29;15.00;98.10
47576;DHT22;33304;52.456;13.328;2022-10-17T07:25:59;15.00;93.40
47576;DHT22;33304;52.456;13.328;2022-10-17T07:28:27;15.00;90.50
47576;DHT22;33304;52.456;13.328;2022-10-17T07:31:02;15.10;90.50
47576;DHT22;33304;52.456;13.328;2022-10-17T07:33:30;15.00;88.20
47576;DHT22;33304;52.456;13.328;2022-10-17T07:35:58;15.20;84.20
47576;DHT22;33304;52.456;13.328;2022-10-17T07:38:25;15.30;79.20
47576;DHT22;33304;52.456;13.328;2022-10-17T07:40:53;15.40;77.70
47576;DHT22;33304;52.456;13.328;2022-10-17T07:43:20;15.50;73.10
47576;DHT22;33304;52.456;13.328;2022-10-17T07:45:49;15.60;70.50
47576;DHT22;33304;52.456;13.328;2022-10-17T07:48:17;15.70;67.60
47576;DHT22;33304;52.456;13.328;2022-10-17T07:50:44;15.70;67.20
47576;DHT22;33304;52.456;13.328;2022-10-17T07:53:12;15.90;65.00
47576;DHT22;33304;52.456;13.328;2022-10-17T07:55:39;16.00;62.30
47576;DHT22;33304;52.456;13.328;2022-10-17T07:58:07;16.10;60.00
47576;DHT22;33304;52.456;13.328;2022-10-17T08:00:35;16.20;58.40
47576;DHT22;33304;52.456;13.328;2022-10-17T08:03:04;16.30;57.70
47576;DHT22;33304;52.456;13.328;2022-10-17T08:05:32;16.40;56.50
47576;DHT22;33304;52.456;13.328;2022-10-17T08:07:59;16.50;54.60
47576;DHT22;33304;52.456;13.328;2022-10-17T08:10:26;16.80;52.90
47576;DHT22;33304;52.456;13.328;2022-10-17T08:12:55;16.80;52.10
47576;DHT22;33304;52.456;13.328;2022-10-17T08:15:22;16.90;51.20
47576;DHT22;33304;52.456;13.328;2022-10-17T08:17:49;17.00;49.50
47576;DHT22;33304;52.456;13.328;2022-10-17T08:20:18;17.10;49.60
47576;DHT22;33304;52.456;13.328;2022-10-17T08:22:51;17.30;48.00
47576;DHT22;33304;52.456;13.328;2022-10-17T08:25:18;17.40;47.30
47576;DHT22;33304;52.456;13.328;2022-10-17T08:27:45;17.50;45.80
47576;DHT22;33304;52.456;13.328;2022-10-17T08:30:12;17.60;45.00
47576;DHT22;33304;52.456;13.328;2022-10-17T08:32:40;17.60;45.70
47576;DHT22;33304;52.456;13.328;2022-10-17T08:35:07;17.70;44.80
47576;DHT22;33304;52.456;13.328;2022-10-17T08:37:36;17.80;44.10
47576;DHT22;33304;52.456;13.328;2022-10-17T08:40:04;18.00;43.40
47576;DHT22;33304;52.456;13.328;2022-10-17T08:45:47;18.30;41.00
47576;DHT22;33304;52.456;13.328;2022-10-17T08:48:18;18.30;39.10
47576;DHT22;33304;52.456;13.328;2022-10-17T08:50:49;18.40;39.20
47576;DHT22;33304;52.456;13.328;2022-10-17T08:53:21;18.50;39.30
47576;DHT22;33304;52.456;13.328;2022-10-17T08:55:50;18.70;38.90
47576;DHT22;33304;52.456;13.328;2022-10-17T08:58:20;18.90;37.60
47576;DHT22;33304;52.456;13.328;2022-10-17T09:00:54;19.00;36.70
47576;DHT22;33304;52.456;13.328;2022-10-17T09:03:33;19.10;35.30
47576;DHT22;33304;52.456;13.328;2022-10-17T09:06:12;19.20;35.40
47576;DHT22;33304;52.456;13.328;2022-10-17T09:08:48;19.30;34.60
47576;DHT22;33304;52.456;13.328;2022-10-17T09:11:38;19.50;34.00
47576;DHT22;33304;52.456;13.328;2022-10-17T09:14:20;19.70;32.80
47576;DHT22;33304;52.456;13.328;2022-10-17T09:17:02;19.80;32.50
47576;DHT22;33304;52.456;13.328;2022-10-17T09:19:35;19.90;32.00
47576;DHT22;33304;52.456;13.328;2022-10-17T09:22:07;19.80;31.60
47576;DHT22;33304;52.456;13.328;2022-10-17T09:24:42;20.00;31.40
47576;DHT22;33304;52.456;13.328;2022-10-17T09:27:19;20.00;31.50
47576;DHT22;33304;52.456;13.328;2022-10-17T09:29:51;20.20;30.50
47576;DHT22;33304;52.456;13.328;2022-10-17T09:32:22;20.30;29.20
47576;DHT22;33304;52.456;13.328;2022-10-17T09:34:51;20.40;29.30
47576;DHT22;33304;52.456;13.328;2022-10-17T09:37:18;20.50;29.30
47576;DHT22;33304;52.456;13.328;2022-10-17T09:39:49;20.60;29.50
47576;DHT22;33304;52.456;13.328;2022-10-17T09:42:25;20.60;29.20
47576;DHT22;33304;52.456;13.328;2022-10-17T09:45:00;20.70;29.30
47576;DHT22;33304;52.456;13.328;2022-10-17T09:47:32;20.80;29.00
47576;DHT22;33304;52.456;13.328;2022-10-17T09:50:00;20.90;28.00
47576;DHT22;33304;52.456;13.328;2022-10-17T09:52:32;21.00;27.20
47576;DHT22;33304;52.456;13.328;2022-10-17T09:55:04;21.10;26.90
47576;DHT22;33304;52.456;13.328;2022-10-17T09:57:53;21.30;26.80
47576;DHT22;33304;52.456;13.328;2022-10-17T10:00:22;21.30;26.10
47576;DHT22;33304;52.456;13.328;2022-10-17T10:02:49;21.40;25.80
47576;DHT22;33304;52.456;13.328;2022-10-17T10:05:18;21.50;25.70
47576;DHT22;33304;52.456;13.328;2022-10-17T10:08:00;21.70;25.60
47576;DHT22;33304;52.456;13.328;2022-10-17T10:10:30;22.00;24.20
47576;DHT22;33304;52.456;13.328;2022-10-17T10:13:04;22.10;23.80
47576;DHT22;33304;52.456;13.328;2022-10-17T10:15:34;22.30;23.40
47576;DHT22;33304;52.456;13.328;2022-10-17T10:18:08;22.30;22.70
47576;DHT22;33304;52.456;13.328;2022-10-17T10:21:04;22.40;22.90
47576;DHT22;33304;52.456;13.328;2022-10-17T10:23:32;22.40;22.40
47576;DHT22;33304;52.456;13.328;2022-10-17T10:26:03;22.40;22.70
47576;DHT22;33304;52.456;13.328;2022-10-17T10:28:34;22.60;22.30
47576;DHT22;33304;52.456;13.328;2022-10-17T10:31:05;22.60;22.10
47576;DHT22;33304;52.456;13.328;2022-10-17T10:33:35;22.70;21.20
47576;DHT22;33304;52.456;13.328;2022-10-17T10:36:04;22.60;21.20
47576;DHT22;33304;52.456;13.328;2022-10-17T10:38:33;22.80;21.30
47576;DHT22;33304;52.456;13.328;2022-10-17T10:41:04;22.90;20.40
47576;DHT22;33304;52.456;13.328;2022-10-17T10:43:35;23.10;20.30
47576;DHT22;33304;52.456;13.328;2022-10-17T10:46:05;23.30;19.30
47576;DHT22;33304;52.456;13.328;2022-10-17T10:48:50;23.50;18.60
47576;DHT22;33304;52.456;13.328;2022-10-17T10:51:22;23.40;18.00
47576;DHT22;33304;52.456;13.328;2022-10-17T10:53:54;23.50;18.10
47576;DHT22;33304;52.456;13.328;2022-10-17T10:56:27;23.50;17.90
47576;DHT22;33304;52.456;13.328;2022-10-17T10:58:59;23.60;17.20
47576;DHT22;33304;52.456;13.328;2022-10-17T11:01:32;23.80;16.80
47576;DHT22;33304;52.456;13.328;2022-10-17T11:04:10;24.00;16.80
47576;DHT22;33304;52.456;13.328;2022-10-17T11:06:42;24.10;15.80
47576;DHT22;33304;52.456;13.328;2022-10-17T11:09:18;24.20;15.40
47576;DHT22;33304;52.456;13.328;2022-10-17T11:11:52;24.50;15.50
47576;DHT22;33304;52.456;13.328;2022-10-17T11:14:27;24.60;14.60
47576;DHT22;33304;52.456;13.328;2022-10-17T11:17:02;24.70;14.60
47576;DHT22;33304;52.456;13.328;2022-10-17T11:19:35;24.80;14.70
47576;DHT22;33304;52.456;13.328;2022-10-17T11:22:22;25.00;14.30
47576;DHT22;33304;52.456;13.328;2022-10-17T11:24:53;25.20;13.60
47576;DHT22;33304;52.456;13.328;2022-10-17T11:27:24;25.50;13.10
47576;DHT22;33304;52.456;13.328;2022-10-17T11:29:51;25.60;13.20
47576;DHT22;33304;52.456;13.328;2022-10-17T11:32:21;25.40;13.10
47576;DHT22;33304;52.456;13.328;2022-10-17T11:34:52;25.30;13.00
47576;DHT22;33304;52.456;13.328;2022-10-17T11:37:23;25.20;12.90
47576;DHT22;33304;52.456;13.328;2022-10-17T11:39:53;25.10;12.90
47576;DHT22;33304;52.456;13.328;2022-10-17T11:42:28;25.00;12.80
47576;DHT22;33304;52.456;13.328;2022-10-17T11:44:59;25.10;12.90
47576;DHT22;33304;52.456;13.328;2022-10-17T11:47:35;25.20;12.90
47576;DHT22;33304;52.456;13.328;2022-10-17T11:50:05;25.20;12.90
47576;DHT22;33304;52.456;13.328;2022-10-17T11:52:40;25.20;12.90
47576;DHT22;33304;52.456;13.328;2022-10-17T11:55:13;25.10;12.90
47576;DHT22;33304;52.456;13.328;2022-10-17T11:57:52;25.10;12.90
47576;DHT22;33304;52.456;13.328;2022-10-17T12:00:33;25.30;13.00
47576;DHT22;33304;52.456;13.328;2022-10-17T12:03:10;25.50;12.80
47576;DHT22;33304;52.456;13.328;2022-10-17T12:05:44;25.50;12.10
47576;DHT22;33304;52.456;13.328;2022-10-17T12:08:20;25.60;12.20
47576;DHT22;33304;52.456;13.328;2022-10-17T12:10:54;25.50;11.60
47576;DHT22;33304;52.456;13.328;2022-10-17T12:13:50;25.80;11.20
47576;DHT22;33304;52.456;13.328;2022-10-17T12:16:47;26.10;10.70
47576;DHT22;33304;52.456;13.328;2022-10-17T12:19:23;26.10;10.70
47576;DHT22;33304;52.456;13.328;2022-10-17T12:21:55;26.10;10.20
47576;DHT22;33304;52.456;13.328;2022-10-17T12:24:35;26.20;10.40
47576;DHT22;33304;52.456;13.328;2022-10-17T12:27:32;26.30;10.40
47576;DHT22;33304;52.456;13.328;2022-10-17T12:30:05;26.40;9.80
47576;DHT22;33304;52.456;13.328;2022-10-17T12:32:33;26.60;9.70
47576;DHT22;33304;52.456;13.328;2022-10-17T12:35:01;27.00;8.80
47576;DHT22;33304;52.456;13.328;2022-10-17T12:38:00;27.30;8.10
47576;DHT22;33304;52.456;13.328;2022-10-17T12:40:46;27.40;7.60
47576;DHT22;33304;52.456;13.328;2022-10-17T12:43:49;27.10;8.40
47576;DHT22;33304;52.456;13.328;2022-10-17T12:49:39;27.20;8.30
47576;DHT22;33304;52.456;13.328;2022-10-17T12:52:26;27.50;7.00
47576;DHT22;33304;52.456;13.328;2022-10-17T12:55:00;27.80;6.50
47576;DHT22;33304;52.456;13.328;2022-10-17T12:57:34;27.80;6.30
47576;DHT22;33304;52.456;13.328;2022-10-17T13:00:15;27.90;6.40
47576;DHT22;33304;52.456;13.328;2022-10-17T13:02:43;27.90;6.20
47576;DHT22;33304;52.456;13.328;2022-10-17T13:05:16;27.90;6.50
47576;DHT22;33304;52.456;13.328;2022-10-17T13:07:46;27.90;6.00
47576;DHT22;33304;52.456;13.328;2022-10-17T13:10:20;28.00;6.50
47576;DHT22;33304;52.456;13.328;2022-10-17T13:12:48;28.20;6.20
47576;DHT22;33304;52.456;13.328;2022-10-17T13:15:17;28.30;5.30
47576;DHT22;33304;52.456;13.328;2022-10-17T13:17:45;28.80;4.40
47576;DHT22;33304;52.456;13.328;2022-10-17T13:20:24;28.70;4.40
47576;DHT22;33304;52.456;13.328;2022-10-17T13:22:53;28.50;4.30
47576;DHT22;33304;52.456;13.328;2022-10-17T13:25:22;28.60;4.90
47576;DHT22;33304;52.456;13.328;2022-10-17T13:27:50;28.80;4.40
47576;DHT22;33304;52.456;13.328;2022-10-17T13:30:30;28.40;4.20
47576;DHT22;33304;52.456;13.328;2022-10-17T13:32:58;27.70;5.90
47576;DHT22;33304;52.456;13.328;2022-10-17T13:35:29;27.90;6.20
47576;DHT22;33304;52.456;13.328;2022-10-17T13:37:59;27.70;6.40
47576;DHT22;33304;52.456;13.328;2022-10-17T13:40:29;27.80;6.20
47576;DHT22;33304;52.456;13.328;2022-10-17T13:42:58;27.60;6.50
47576;DHT22;33304;52.456;13.328;2022-10-17T13:45:29;27.10;8.00
47576;DHT22;33304;52.456;13.328;2022-10-17T13:47:58;27.30;7.80
47576;DHT22;33304;52.456;13.328;2022-10-17T13:50:32;28.20;6.50
47576;DHT22;33304;52.456;13.328;2022-10-17T13:53:19;28.80;5.00
47576;DHT22;33304;52.456;13.328;2022-10-17T13:55:51;28.40;5.10
47576;DHT22;33304;52.456;13.328;2022-10-17T13:58:18;27.90;5.70
47576;DHT22;33304;52.456;13.328;2022-10-17T14:00:46;28.10;5.80
47576;DHT22;33304;52.456;13.328;2022-10-17T14:03:14;28.40;4.20
47576;DHT22;33304;52.456;13.328;2022-10-17T14:06:02;28.80;4.40
47576;DHT22;33304;52.456;13.328;2022-10-17T14:08:31;28.80;4.40
47576;DHT22;33304;52.456;13.328;2022-10-17T14:11:00;28.70;4.40
47576;DHT22;33304;52.456;13.328;2022-10-17T14:13:29;28.40;4.20
47576;DHT22;33304;52.456;13.328;2022-10-17T14:16:01;28.50;4.30
47576;DHT22;33304;52.456;13.328;2022-10-17T14:18:30;28.30;4.20
47576;DHT22;33304;52.456;13.328;2022-10-17T14:20:58;27.80;5.60
47576;DHT22;33304;52.456;13.328;2022-10-17T14:23:34;28.00;5.30
47576;DHT22;33304;52.456;13.328;2022-10-17T14:26:06;28.40;4.80
47576;DHT22;33304;52.456;13.328;2022-10-17T14:28:34;28.70;4.40
47576;DHT22;33304;52.456;13.328;2022-10-17T14:31:22;28.70;4.40
47576;DHT22;33304;52.456;13.328;2022-10-17T14:33:51;28.90;4.50
47576;DHT22;33304;52.456;13.328;2022-10-17T14:36:19;28.50;4.30
47576;DHT22;33304;52.456;13.328;2022-10-17T14:38:50;28.40;4.20
47576;DHT22;33304;52.456;13.328;2022-10-17T14:41:21;28.30;4.20
47576;DHT22;33304;52.456;13.328;2022-10-17T14:43:53;28.00;5.30
47576;DHT22;33304;52.456;13.328;2022-10-17T14:46:20;27.60;6.40
47576;DHT22;33304;52.456;13.328;2022-10-17T14:48:52;27.10;7.40
47576;DHT22;33304;52.456;13.328;2022-10-17T14:51:19;26.50;8.80
47576;DHT22;33304;52.456;13.328;2022-10-17T14:54:01;26.10;9.50
47576;DHT22;33304;52.456;13.328;2022-10-17T14:56:35;25.70;10.80
47576;DHT22;33304;52.456;13.328;2022-10-17T14:59:02;25.50;11.90
47576;DHT22;33304;52.456;13.328;2022-10-17T15:01:31;25.50;12.10
47576;DHT22;33304;52.456;13.328;2022-10-17T15:03:59;25.40;12.30
47576;DHT22;33304;52.456;13.328;2022-10-17T15:06:27;25.30;13.00
47576;DHT22;33304;52.456;13.328;2022-10-17T15:08:55;25.30;13.00
47576;DHT22;33304;52.456;13.328;2022-10-17T15:11:24;25.10;12.90
47576;DHT22;33304;52.456;13.328;2022-10-17T15:13:51;25.20;12.90
47576;DHT22;33304;52.456;13.328;2022-10-17T15:16:19;25.10;12.90
47576;DHT22;33304;52.456;13.328;2022-10-17T15:18:47;25.00;12.80
47576;DHT22;33304;52.456;13.328;2022-10-17T15:21:16;24.90;13.30
47576;DHT22;33304;52.456;13.328;2022-10-17T15:23:43;24.70;14.00
47576;DHT22;33304;52.456;13.328;2022-10-17T15:26:17;24.50;14.50
47576;DHT22;33304;52.456;13.328;2022-10-17T15:28:46;24.40;15.00
47576;DHT22;33304;52.456;13.328;2022-10-17T15:31:16;24.30;15.30
47576;DHT22;33304;52.456;13.328;2022-10-17T15:33:44;24.20;15.80
47576;DHT22;33304;52.456;13.328;2022-10-17T15:36:19;24.10;16.10
47576;DHT22;33304;52.456;13.328;2022-10-17T15:38:47;24.00;16.40
47576;DHT22;33304;52.456;13.328;2022-10-17T15:41:14;23.90;16.70
47576;DHT22;33304;52.456;13.328;2022-10-17T15:43:41;23.80;17.00
47576;DHT22;33304;52.456;13.328;2022-10-17T15:46:12;23.70;17.20
47576;DHT22;33304;52.456;13.328;2022-10-17T15:48:40;23.60;17.50
47576;DHT22;33304;52.456;13.328;2022-10-17T15:51:08;23.50;18.10
47576;DHT22;33304;52.456;13.328;2022-10-17T15:53:35;23.50;18.10